sensor_id;sensor_type;location;lat;lon;timestamp;P1;durP1;ratioP1;P2;durP2;ratioP2
62925;SDS011;55732;52.248;-0.844;2023-07-13T00:01:50;7.30;;;2.90;;
62925;SDS011;55732;52.248;-0.844;2023-07-13T00:04:17;7.10;;;2.90;;
62925;SDS011;55732;52.248;-0.844;2023-07-13T00:06:44;4.60;;;2.80;;
62925;SDS011;55732;52.248;-0.844;2023-07-13T00:09:14;5.40;;;2.70;;
62925;SDS011;55732;52.248;-0.844;2023-07-13T00:11:41;7.40;;;3.20;;
62925;SDS011;55732;52.248;-0.844;2023-07-13T00:14:08;5.20;;;2.60;;
62925;SDS011;55732;52.248;-0.844;2023-07-13T00:16:35;9.30;;;2.60;;
62925;SDS011;55732;52.248;-0.844;2023-07-13T00:21:27;7.40;;;4.10;;
62925;SDS011;55732;52.248;-0.844;2023-07-13T00:23:53;8.50;;;2.90;;
62925;SDS011;55732;52.248;-0.844;2023-07-13T00:26:18;5.10;;;2.70;;
62925;SDS011;55732;52.248;-0.844;2023-07-13T00:28:43;9.60;;;3.20;;
62925;SDS011;55732;52.248;-0.844;2023-07-13T00:31:10;7.80;;;3.00;;
62925;SDS011;55732;52.248;-0.844;2023-07-13T00:36:02;8.40;;;3.60;;
62925;SDS011;55732;52.248;-0.844;2023-07-13T00:38:28;9.00;;;3.90;;
62925;SDS011;55732;52.248;-0.844;2023-07-13T00:40:54;6.00;;;3.10;;
62925;SDS011;55732;52.248;-0.844;2023-07-13T00:43:20;8.40;;;3.20;;
62925;SDS011;55732;52.248;-0.844;2023-07-13T00:48:19;5.90;;;3.20;;
62925;SDS011;55732;52.248;-0.844;2023-07-13T00:50:47;5.60;;;2.80;;
62925;SDS011;55732;52.248;-0.844;2023-07-13T00:53:17;8.30;;;3.10;;
62925;SDS011;55732;52.248;-0.844;2023-07-13T00:55:43;6.60;;;3.70;;
62925;SDS011;55732;52.248;-0.844;2023-07-13T00:58:09;5.40;;;2.90;;
62925;SDS011;55732;52.248;-0.844;2023-07-13T01:00:35;6.30;;;3.60;;
62925;SDS011;55732;52.248;-0.844;2023-07-13T01:03:03;5.30;;;3.00;;
62925;SDS011;55732;52.248;-0.844;2023-07-13T01:05:30;9.00;;;3.50;;
62925;SDS011;55732;52.248;-0.844;2023-07-13T01:07:58;6.20;;;2.60;;
62925;SDS011;55732;52.248;-0.844;2023-07-13T01:10:25;4.30;;;2.80;;
62925;SDS011;55732;52.248;-0.844;2023-07-13T01:12:51;6.60;;;3.20;;
62925;SDS011;55732;52.248;-0.844;2023-07-13T01:15:34;6.90;;;3.00;;
62925;SDS011;55732;52.248;-0.844;2023-07-13T01:18:11;11.40;;;2.80;;
62925;SDS011;55732;52.248;-0.844;2023-07-13T01:20:48;5.30;;;2.60;;
62925;SDS011;55732;52.248;-0.844;2023-07-13T01:23:17;5.20;;;3.20;;
62925;SDS011;55732;52.248;-0.844;2023-07-13T01:25:44;7.10;;;3.30;;
62925;SDS011;55732;52.248;-0.844;2023-07-13T01:28:09;4.80;;;3.20;;
62925;SDS011;55732;52.248;-0.844;2023-07-13T01:30:35;5.40;;;3.00;;
62925;SDS011;55732;52.248;-0.844;2023-07-13T01:33:03;4.80;;;2.90;;
62925;SDS011;55732;52.248;-0.844;2023-07-13T01:35:29;4.60;;;3.00;;
62925;SDS011;55732;52.248;-0.844;2023-07-13T01:37:54;5.60;;;2.80;;
62925;SDS011;55732;52.248;-0.844;2023-07-13T01:40:21;6.00;;;3.20;;
62925;SDS011;55732;52.248;-0.844;2023-07-13T01:42:46;10.80;;;3.20;;
62925;SDS011;55732;52.248;-0.844;2023-07-13T01:45:12;4.70;;;2.80;;
62925;SDS011;55732;52.248;-0.844;2023-07-13T01:47:37;5.40;;;3.10;;
62925;SDS011;55732;52.248;-0.844;2023-07-13T01:50:03;6.10;;;3.10;;
62925;SDS011;55732;52.248;-0.844;2023-07-13T01:52:29;5.50;;;3.10;;
62925;SDS011;55732;52.248;-0.844;2023-07-13T01:54:54;5.30;;;2.80;;
62925;SDS011;55732;52.248;-0.844;2023-07-13T01:57:20;6.10;;;2.80;;
62925;SDS011;55732;52.248;-0.844;2023-07-13T01:59:45;6.80;;;3.10;;
62925;SDS011;55732;52.248;-0.844;2023-07-13T02:02:11;4.50;;;2.70;;
62925;SDS011;55732;52.248;-0.844;2023-07-13T02:04:36;5.70;;;3.10;;
62925;SDS011;55732;52.248;-0.844;2023-07-13T02:07:01;8.20;;;2.90;;
62925;SDS011;55732;52.248;-0.844;2023-07-13T02:09:27;4.90;;;2.60;;
62925;SDS011;55732;52.248;-0.844;2023-07-13T02:11:53;8.10;;;3.30;;
62925;SDS011;55732;52.248;-0.844;2023-07-13T02:14:18;8.70;;;2.90;;
62925;SDS011;55732;52.248;-0.844;2023-07-13T02:16:43;4.80;;;2.80;;
62925;SDS011;55732;52.248;-0.844;2023-07-13T02:19:09;11.40;;;3.20;;
62925;SDS011;55732;52.248;-0.844;2023-07-13T02:21:35;5.00;;;2.90;;
62925;SDS011;55732;52.248;-0.844;2023-07-13T02:24:00;8.80;;;3.00;;
62925;SDS011;55732;52.248;-0.844;2023-07-13T02:26:26;8.80;;;3.00;;
62925;SDS011;55732;52.248;-0.844;2023-07-13T02:28:52;7.30;;;3.10;;
62925;SDS011;55732;52.248;-0.844;2023-07-13T02:31:17;7.40;;;3.30;;
62925;SDS011;55732;52.248;-0.844;2023-07-13T02:33:43;4.60;;;3.20;;
62925;SDS011;55732;52.248;-0.844;2023-07-13T02:36:09;6.80;;;3.20;;
62925;SDS011;55732;52.248;-0.844;2023-07-13T02:38:35;6.20;;;3.30;;
62925;SDS011;55732;52.248;-0.844;2023-07-13T02:41:04;5.60;;;2.90;;
62925;SDS011;55732;52.248;-0.844;2023-07-13T02:43:31;8.80;;;3.40;;
62925;SDS011;55732;52.248;-0.844;2023-07-13T02:45:56;7.30;;;3.40;;
62925;SDS011;55732;52.248;-0.844;2023-07-13T02:48:25;8.40;;;3.50;;
62925;SDS011;55732;52.248;-0.844;2023-07-13T02:50:51;4.80;;;3.00;;
62925;SDS011;55732;52.248;-0.844;2023-07-13T02:53:16;4.70;;;2.90;;
62925;SDS011;55732;52.248;-0.844;2023-07-13T02:55:41;4.90;;;2.70;;
62925;SDS011;55732;52.248;-0.844;2023-07-13T02:58:12;9.20;;;3.30;;
62925;SDS011;55732;52.248;-0.844;2023-07-13T03:00:41;8.90;;;3.00;;
62925;SDS011;55732;52.248;-0.844;2023-07-13T03:03:08;5.40;;;3.10;;
62925;SDS011;55732;52.248;-0.844;2023-07-13T03:05:33;4.90;;;3.00;;
62925;SDS011;55732;52.248;-0.844;2023-07-13T03:07:59;6.00;;;3.10;;
62925;SDS011;55732;52.248;-0.844;2023-07-13T03:10:24;5.30;;;2.80;;
62925;SDS011;55732;52.248;-0.844;2023-07-13T03:12:50;4.90;;;3.00;;
62925;SDS011;55732;52.248;-0.844;2023-07-13T03:15:16;4.70;;;2.90;;
62925;SDS011;55732;52.248;-0.844;2023-07-13T03:17:41;6.80;;;3.20;;
62925;SDS011;55732;52.248;-0.844;2023-07-13T03:20:07;6.10;;;3.60;;
62925;SDS011;55732;52.248;-0.844;2023-07-13T03:22:33;7.40;;;3.60;;
62925;SDS011;55732;52.248;-0.844;2023-07-13T03:24:58;4.40;;;2.80;;
62925;SDS011;55732;52.248;-0.844;2023-07-13T03:27:24;6.60;;;3.50;;
62925;SDS011;55732;52.248;-0.844;2023-07-13T03:29:49;10.70;;;3.40;;
62925;SDS011;55732;52.248;-0.844;2023-07-13T03:32:14;8.80;;;3.30;;
62925;SDS011;55732;52.248;-0.844;2023-07-13T03:34:40;7.30;;;3.10;;
62925;SDS011;55732;52.248;-0.844;2023-07-13T03:37:05;7.00;;;3.30;;
62925;SDS011;55732;52.248;-0.844;2023-07-13T03:39:31;7.60;;;3.40;;
62925;SDS011;55732;52.248;-0.844;2023-07-13T03:41:56;5.90;;;3.40;;
62925;SDS011;55732;52.248;-0.844;2023-07-13T03:44:22;5.80;;;4.00;;
62925;SDS011;55732;52.248;-0.844;2023-07-13T03:46:47;7.00;;;2.80;;
62925;SDS011;55732;52.248;-0.844;2023-07-13T03:49:12;7.10;;;3.30;;
62925;SDS011;55732;52.248;-0.844;2023-07-13T03:51:38;7.70;;;4.00;;
62925;SDS011;55732;52.248;-0.844;2023-07-13T03:54:03;6.80;;;3.50;;
62925;SDS011;55732;52.248;-0.844;2023-07-13T03:56:29;9.40;;;3.50;;
62925;SDS011;55732;52.248;-0.844;2023-07-13T03:58:55;7.30;;;3.20;;
62925;SDS011;55732;52.248;-0.844;2023-07-13T04:01:22;9.40;;;3.40;;
62925;SDS011;55732;52.248;-0.844;2023-07-13T04:03:50;7.80;;;3.30;;
62925;SDS011;55732;52.248;-0.844;2023-07-13T04:06:23;5.30;;;3.20;;
62925;SDS011;55732;52.248;-0.844;2023-07-13T04:08:53;5.50;;;3.10;;
62925;SDS011;55732;52.248;-0.844;2023-07-13T04:11:22;11.00;;;3.40;;
62925;SDS011;55732;52.248;-0.844;2023-07-13T04:13:50;5.70;;;2.80;;
62925;SDS011;55732;52.248;-0.844;2023-07-13T04:16:16;8.30;;;3.60;;
62925;SDS011;55732;52.248;-0.844;2023-07-13T04:18:43;8.40;;;3.00;;
62925;SDS011;55732;52.248;-0.844;2023-07-13T04:21:09;6.10;;;3.00;;
62925;SDS011;55732;52.248;-0.844;2023-07-13T04:23:36;5.10;;;3.00;;
62925;SDS011;55732;52.248;-0.844;2023-07-13T04:26:03;6.80;;;3.00;;
62925;SDS011;55732;52.248;-0.844;2023-07-13T04:28:29;11.00;;;3.70;;
62925;SDS011;55732;52.248;-0.844;2023-07-13T04:30:55;10.70;;;3.60;;
62925;SDS011;55732;52.248;-0.844;2023-07-13T04:33:21;6.30;;;3.50;;
62925;SDS011;55732;52.248;-0.844;2023-07-13T04:35:48;8.60;;;3.40;;
62925;SDS011;55732;52.248;-0.844;2023-07-13T04:38:15;11.20;;;4.00;;
62925;SDS011;55732;52.248;-0.844;2023-07-13T04:40:42;7.30;;;3.40;;
62925;SDS011;55732;52.248;-0.844;2023-07-13T04:43:10;16.10;;;4.40;;
62925;SDS011;55732;52.248;-0.844;2023-07-13T04:45:36;8.40;;;3.80;;
62925;SDS011;55732;52.248;-0.844;2023-07-13T04:48:01;7.30;;;2.90;;
62925;SDS011;55732;52.248;-0.844;2023-07-13T04:50:27;6.50;;;3.10;;
62925;SDS011;55732;52.248;-0.844;2023-07-13T04:52:52;5.30;;;3.30;;
62925;SDS011;55732;52.248;-0.844;2023-07-13T04:55:18;7.80;;;2.90;;
62925;SDS011;55732;52.248;-0.844;2023-07-13T04:57:44;8.80;;;3.00;;
62925;SDS011;55732;52.248;-0.844;2023-07-13T05:00:11;6.00;;;2.90;;
62925;SDS011;55732;52.248;-0.844;2023-07-13T05:02:38;7.50;;;2.90;;
62925;SDS011;55732;52.248;-0.844;2023-07-13T05:05:04;11.10;;;3.70;;
62925;SDS011;55732;52.248;-0.844;2023-07-13T05:07:31;5.30;;;2.80;;
62925;SDS011;55732;52.248;-0.844;2023-07-13T05:09:58;8.10;;;3.20;;
62925;SDS011;55732;52.248;-0.844;2023-07-13T05:12:24;5.90;;;2.70;;
62925;SDS011;55732;52.248;-0.844;2023-07-13T05:14:50;6.20;;;2.70;;
62925;SDS011;55732;52.248;-0.844;2023-07-13T05:17:16;7.00;;;2.90;;
62925;SDS011;55732;52.248;-0.844;2023-07-13T05:19:41;5.80;;;2.70;;
62925;SDS011;55732;52.248;-0.844;2023-07-13T05:22:06;7.50;;;2.80;;
62925;SDS011;55732;52.248;-0.844;2023-07-13T05:24:32;6.90;;;2.60;;
62925;SDS011;55732;52.248;-0.844;2023-07-13T05:26:57;7.60;;;2.70;;
62925;SDS011;55732;52.248;-0.844;2023-07-13T05:29:23;5.50;;;2.60;;
62925;SDS011;55732;52.248;-0.844;2023-07-13T05:31:48;9.20;;;2.70;;
62925;SDS011;55732;52.248;-0.844;2023-07-13T05:34:14;8.10;;;3.10;;
62925;SDS011;55732;52.248;-0.844;2023-07-13T05:36:40;6.60;;;2.70;;
62925;SDS011;55732;52.248;-0.844;2023-07-13T05:39:06;3.80;;;2.30;;
62925;SDS011;55732;52.248;-0.844;2023-07-13T05:41:31;5.20;;;2.40;;
62925;SDS011;55732;52.248;-0.844;2023-07-13T05:43:57;5.10;;;2.70;;
62925;SDS011;55732;52.248;-0.844;2023-07-13T05:46:22;6.80;;;2.80;;
62925;SDS011;55732;52.248;-0.844;2023-07-13T05:48:47;7.40;;;3.00;;
62925;SDS011;55732;52.248;-0.844;2023-07-13T05:51:13;7.10;;;2.60;;
62925;SDS011;55732;52.248;-0.844;2023-07-13T05:53:39;5.70;;;2.50;;
62925;SDS011;55732;52.248;-0.844;2023-07-13T05:56:04;6.80;;;2.30;;
62925;SDS011;55732;52.248;-0.844;2023-07-13T05:58:30;5.30;;;2.30;;
62925;SDS011;55732;52.248;-0.844;2023-07-13T06:00:59;7.00;;;2.60;;
62925;SDS011;55732;52.248;-0.844;2023-07-13T06:03:27;12.00;;;2.60;;
62925;SDS011;55732;52.248;-0.844;2023-07-13T06:05:52;5.00;;;2.30;;
62925;SDS011;55732;52.248;-0.844;2023-07-13T06:08:18;6.30;;;2.40;;
62925;SDS011;55732;52.248;-0.844;2023-07-13T06:10:43;4.20;;;2.20;;
62925;SDS011;55732;52.248;-0.844;2023-07-13T06:13:08;10.20;;;2.60;;
62925;SDS011;55732;52.248;-0.844;2023-07-13T06:15:34;6.00;;;2.50;;
62925;SDS011;55732;52.248;-0.844;2023-07-13T06:17:59;4.40;;;2.10;;
62925;SDS011;55732;52.248;-0.844;2023-07-13T06:20:25;3.90;;;2.00;;
62925;SDS011;55732;52.248;-0.844;2023-07-13T06:22:50;5.80;;;2.50;;
62925;SDS011;55732;52.248;-0.844;2023-07-13T06:25:16;8.10;;;2.60;;
62925;SDS011;55732;52.248;-0.844;2023-07-13T06:27:42;5.40;;;2.20;;
62925;SDS011;55732;52.248;-0.844;2023-07-13T06:30:08;7.70;;;2.50;;
62925;SDS011;55732;52.248;-0.844;2023-07-13T06:32:34;6.10;;;2.30;;
62925;SDS011;55732;52.248;-0.844;2023-07-13T06:34:59;6.90;;;2.50;;
62925;SDS011;55732;52.248;-0.844;2023-07-13T06:37:24;6.90;;;2.40;;
62925;SDS011;55732;52.248;-0.844;2023-07-13T06:39:50;3.60;;;2.00;;
62925;SDS011;55732;52.248;-0.844;2023-07-13T06:42:16;5.60;;;2.20;;
62925;SDS011;55732;52.248;-0.844;2023-07-13T06:44:42;5.00;;;2.20;;
62925;SDS011;55732;52.248;-0.844;2023-07-13T06:47:07;4.30;;;2.20;;
62925;SDS011;55732;52.248;-0.844;2023-07-13T06:49:33;4.60;;;2.30;;
62925;SDS011;55732;52.248;-0.844;2023-07-13T06:51:58;3.80;;;2.20;;
62925;SDS011;55732;52.248;-0.844;2023-07-13T06:54:24;6.90;;;2.10;;
62925;SDS011;55732;52.248;-0.844;2023-07-13T06:56:50;5.10;;;2.30;;
62925;SDS011;55732;52.248;-0.844;2023-07-13T06:59:15;5.00;;;2.20;;
62925;SDS011;55732;52.248;-0.844;2023-07-13T07:01:40;6.20;;;2.30;;
62925;SDS011;55732;52.248;-0.844;2023-07-13T07:04:06;5.70;;;2.10;;
62925;SDS011;55732;52.248;-0.844;2023-07-13T07:06:31;7.70;;;2.40;;
62925;SDS011;55732;52.248;-0.844;2023-07-13T07:08:56;3.80;;;1.80;;
62925;SDS011;55732;52.248;-0.844;2023-07-13T07:11:23;7.10;;;2.10;;
62925;SDS011;55732;52.248;-0.844;2023-07-13T07:13:50;5.10;;;2.00;;
62925;SDS011;55732;52.248;-0.844;2023-07-13T07:18:43;3.70;;;1.90;;
62925;SDS011;55732;52.248;-0.844;2023-07-13T07:21:08;6.10;;;2.30;;
62925;SDS011;55732;52.248;-0.844;2023-07-13T07:23:34;4.70;;;2.40;;
62925;SDS011;55732;52.248;-0.844;2023-07-13T07:25:59;4.90;;;2.00;;
62925;SDS011;55732;52.248;-0.844;2023-07-13T07:28:24;4.40;;;1.90;;
62925;SDS011;55732;52.248;-0.844;2023-07-13T07:30:52;5.20;;;2.10;;
62925;SDS011;55732;52.248;-0.844;2023-07-13T07:33:19;3.90;;;1.80;;
62925;SDS011;55732;52.248;-0.844;2023-07-13T07:35:45;7.60;;;1.90;;
62925;SDS011;55732;52.248;-0.844;2023-07-13T07:38:10;4.20;;;1.90;;
62925;SDS011;55732;52.248;-0.844;2023-07-13T07:40:36;3.70;;;2.00;;
62925;SDS011;55732;52.248;-0.844;2023-07-13T07:43:03;10.10;;;1.90;;
62925;SDS011;55732;52.248;-0.844;2023-07-13T07:45:29;5.40;;;1.80;;
62925;SDS011;55732;52.248;-0.844;2023-07-13T07:47:54;3.20;;;1.80;;
62925;SDS011;55732;52.248;-0.844;2023-07-13T07:50:23;6.90;;;2.10;;
62925;SDS011;55732;52.248;-0.844;2023-07-13T07:52:50;2.60;;;1.90;;
62925;SDS011;55732;52.248;-0.844;2023-07-13T07:55:15;6.10;;;2.00;;
62925;SDS011;55732;52.248;-0.844;2023-07-13T07:57:41;5.10;;;1.90;;
62925;SDS011;55732;52.248;-0.844;2023-07-13T08:00:06;2.90;;;2.10;;
62925;SDS011;55732;52.248;-0.844;2023-07-13T08:02:32;4.00;;;1.90;;
62925;SDS011;55732;52.248;-0.844;2023-07-13T08:04:58;3.50;;;2.00;;
62925;SDS011;55732;52.248;-0.844;2023-07-13T08:07:23;4.80;;;2.00;;
62925;SDS011;55732;52.248;-0.844;2023-07-13T08:09:51;6.60;;;2.00;;
62925;SDS011;55732;52.248;-0.844;2023-07-13T08:12:17;3.80;;;1.70;;
62925;SDS011;55732;52.248;-0.844;2023-07-13T08:14:43;5.30;;;1.90;;
62925;SDS011;55732;52.248;-0.844;2023-07-13T08:17:08;3.50;;;1.80;;
62925;SDS011;55732;52.248;-0.844;2023-07-13T08:19:33;4.20;;;1.90;;
62925;SDS011;55732;52.248;-0.844;2023-07-13T08:21:59;4.50;;;1.80;;
62925;SDS011;55732;52.248;-0.844;2023-07-13T08:24:24;3.90;;;1.90;;
62925;SDS011;55732;52.248;-0.844;2023-07-13T08:26:50;2.40;;;1.90;;
62925;SDS011;55732;52.248;-0.844;2023-07-13T08:29:16;5.00;;;1.90;;
62925;SDS011;55732;52.248;-0.844;2023-07-13T08:31:41;4.00;;;2.00;;
62925;SDS011;55732;52.248;-0.844;2023-07-13T08:34:06;5.60;;;1.90;;
62925;SDS011;55732;52.248;-0.844;2023-07-13T08:36:32;4.10;;;1.90;;
62925;SDS011;55732;52.248;-0.844;2023-07-13T08:38:57;5.80;;;1.80;;
62925;SDS011;55732;52.248;-0.844;2023-07-13T08:41:23;3.70;;;2.10;;
62925;SDS011;55732;52.248;-0.844;2023-07-13T08:43:50;5.80;;;2.00;;
62925;SDS011;55732;52.248;-0.844;2023-07-13T08:46:28;4.60;;;2.10;;
62925;SDS011;55732;52.248;-0.844;2023-07-13T08:51:47;6.70;;;2.10;;
62925;SDS011;55732;52.248;-0.844;2023-07-13T08:56:51;6.30;;;2.50;;
62925;SDS011;55732;52.248;-0.844;2023-07-13T08:59:19;4.60;;;2.30;;
62925;SDS011;55732;52.248;-0.844;2023-07-13T09:04:37;6.00;;;1.90;;
62925;SDS011;55732;52.248;-0.844;2023-07-13T09:14:55;6.40;;;1.90;;
62925;SDS011;55732;52.248;-0.844;2023-07-13T09:20:02;6.50;;;2.00;;
62925;SDS011;55732;52.248;-0.844;2023-07-13T09:22:36;4.60;;;2.00;;
62925;SDS011;55732;52.248;-0.844;2023-07-13T09:27:50;3.60;;;1.90;;
62925;SDS011;55732;52.248;-0.844;2023-07-13T09:30:24;4.30;;;2.00;;
62925;SDS011;55732;52.248;-0.844;2023-07-13T09:32:57;5.40;;;2.00;;
62925;SDS011;55732;52.248;-0.844;2023-07-13T09:35:24;2.40;;;1.80;;
62925;SDS011;55732;52.248;-0.844;2023-07-13T09:37:57;3.00;;;1.90;;
62925;SDS011;55732;52.248;-0.844;2023-07-13T09:43:24;3.50;;;1.70;;
62925;SDS011;55732;52.248;-0.844;2023-07-13T09:45:49;4.40;;;1.90;;
62925;SDS011;55732;52.248;-0.844;2023-07-13T09:48:16;3.00;;;1.90;;
62925;SDS011;55732;52.248;-0.844;2023-07-13T09:50:43;3.80;;;1.80;;
62925;SDS011;55732;52.248;-0.844;2023-07-13T09:53:13;4.60;;;2.10;;
62925;SDS011;55732;52.248;-0.844;2023-07-13T09:55:40;2.50;;;1.70;;
62925;SDS011;55732;52.248;-0.844;2023-07-13T09:58:12;5.80;;;2.00;;
62925;SDS011;55732;52.248;-0.844;2023-07-13T10:00:40;4.50;;;1.80;;
62925;SDS011;55732;52.248;-0.844;2023-07-13T10:05:44;5.60;;;2.00;;
62925;SDS011;55732;52.248;-0.844;2023-07-13T10:08:16;3.60;;;2.00;;
62925;SDS011;55732;52.248;-0.844;2023-07-13T10:10:45;4.60;;;1.60;;
62925;SDS011;55732;52.248;-0.844;2023-07-13T10:13:26;4.70;;;2.00;;
62925;SDS011;55732;52.248;-0.844;2023-07-13T10:15:55;4.00;;;2.00;;
62925;SDS011;55732;52.248;-0.844;2023-07-13T10:18:22;5.00;;;1.90;;
62925;SDS011;55732;52.248;-0.844;2023-07-13T10:20:50;4.30;;;1.80;;
62925;SDS011;55732;52.248;-0.844;2023-07-13T10:23:24;3.50;;;1.90;;
62925;SDS011;55732;52.248;-0.844;2023-07-13T10:25:56;4.70;;;1.60;;
62925;SDS011;55732;52.248;-0.844;2023-07-13T10:28:30;5.30;;;2.10;;
62925;SDS011;55732;52.248;-0.844;2023-07-13T10:31:01;4.50;;;1.70;;
62925;SDS011;55732;52.248;-0.844;2023-07-13T10:33:27;3.60;;;1.80;;
62925;SDS011;55732;52.248;-0.844;2023-07-13T10:35:55;3.60;;;1.90;;
62925;SDS011;55732;52.248;-0.844;2023-07-13T10:38:28;4.30;;;2.10;;
62925;SDS011;55732;52.248;-0.844;2023-07-13T10:43:43;3.80;;;1.80;;
62925;SDS011;55732;52.248;-0.844;2023-07-13T10:46:13;5.00;;;2.00;;
62925;SDS011;55732;52.248;-0.844;2023-07-13T10:48:41;4.40;;;1.70;;
62925;SDS011;55732;52.248;-0.844;2023-07-13T10:51:10;2.90;;;1.80;;
62925;SDS011;55732;52.248;-0.844;2023-07-13T10:53:37;5.70;;;1.90;;
62925;SDS011;55732;52.248;-0.844;2023-07-13T10:56:06;4.80;;;2.10;;
62925;SDS011;55732;52.248;-0.844;2023-07-13T10:59:12;2.90;;;1.90;;
62925;SDS011;55732;52.248;-0.844;2023-07-13T11:02:09;4.90;;;1.80;;
62925;SDS011;55732;52.248;-0.844;2023-07-13T11:04:40;2.90;;;1.60;;
62925;SDS011;55732;52.248;-0.844;2023-07-13T11:07:19;2.70;;;1.80;;
62925;SDS011;55732;52.248;-0.844;2023-07-13T11:09:49;3.20;;;1.90;;
62925;SDS011;55732;52.248;-0.844;2023-07-13T11:22:42;4.40;;;2.00;;
62925;SDS011;55732;52.248;-0.844;2023-07-13T11:28:05;4.00;;;2.00;;
62925;SDS011;55732;52.248;-0.844;2023-07-13T11:30:46;4.40;;;1.90;;
62925;SDS011;55732;52.248;-0.844;2023-07-13T11:36:03;3.30;;;2.10;;
62925;SDS011;55732;52.248;-0.844;2023-07-13T11:38:38;7.30;;;2.80;;
62925;SDS011;55732;52.248;-0.844;2023-07-13T11:41:22;3.70;;;2.30;;
62925;SDS011;55732;52.248;-0.844;2023-07-13T11:43:54;3.70;;;1.90;;
62925;SDS011;55732;52.248;-0.844;2023-07-13T11:46:27;2.30;;;1.90;;
62925;SDS011;55732;52.248;-0.844;2023-07-13T11:48:53;4.40;;;2.20;;
62925;SDS011;55732;52.248;-0.844;2023-07-13T11:51:20;3.80;;;2.00;;
62925;SDS011;55732;52.248;-0.844;2023-07-13T11:53:57;3.00;;;1.80;;
62925;SDS011;55732;52.248;-0.844;2023-07-13T11:56:28;5.70;;;2.00;;
62925;SDS011;55732;52.248;-0.844;2023-07-13T11:58:55;3.30;;;1.90;;
62925;SDS011;55732;52.248;-0.844;2023-07-13T12:01:29;4.70;;;2.30;;
62925;SDS011;55732;52.248;-0.844;2023-07-13T12:03:58;3.80;;;2.50;;
62925;SDS011;55732;52.248;-0.844;2023-07-13T12:06:26;2.70;;;2.00;;
62925;SDS011;55732;52.248;-0.844;2023-07-13T12:08:58;4.30;;;1.90;;
62925;SDS011;55732;52.248;-0.844;2023-07-13T12:11:24;3.00;;;1.90;;
62925;SDS011;55732;52.248;-0.844;2023-07-13T12:13:50;3.80;;;2.20;;
62925;SDS011;55732;52.248;-0.844;2023-07-13T12:16:17;3.70;;;2.10;;
62925;SDS011;55732;52.248;-0.844;2023-07-13T12:18:47;3.80;;;2.40;;
62925;SDS011;55732;52.248;-0.844;2023-07-13T12:21:14;2.90;;;2.00;;
62925;SDS011;55732;52.248;-0.844;2023-07-13T12:23:43;3.90;;;2.00;;
62925;SDS011;55732;52.248;-0.844;2023-07-13T12:26:12;6.70;;;2.30;;
62925;SDS011;55732;52.248;-0.844;2023-07-13T12:28:46;5.80;;;2.10;;
62925;SDS011;55732;52.248;-0.844;2023-07-13T12:31:34;3.20;;;2.10;;
62925;SDS011;55732;52.248;-0.844;2023-07-13T12:36:34;3.10;;;2.20;;
62925;SDS011;55732;52.248;-0.844;2023-07-13T12:39:15;4.20;;;2.30;;
62925;SDS011;55732;52.248;-0.844;2023-07-13T12:41:44;3.20;;;2.00;;
62925;SDS011;55732;52.248;-0.844;2023-07-13T12:44:31;1.90;;;1.70;;
62925;SDS011;55732;52.248;-0.844;2023-07-13T12:49:30;3.30;;;2.00;;
62925;SDS011;55732;52.248;-0.844;2023-07-13T12:52:00;4.50;;;2.00;;
62925;SDS011;55732;52.248;-0.844;2023-07-13T12:54:27;4.60;;;1.90;;
62925;SDS011;55732;52.248;-0.844;2023-07-13T12:56:54;4.20;;;1.90;;
62925;SDS011;55732;52.248;-0.844;2023-07-13T12:59:23;2.40;;;1.90;;
62925;SDS011;55732;52.248;-0.844;2023-07-13T13:01:53;3.80;;;2.20;;
62925;SDS011;55732;52.248;-0.844;2023-07-13T13:04:19;3.50;;;2.30;;
62925;SDS011;55732;52.248;-0.844;2023-07-13T13:06:46;2.80;;;2.10;;
62925;SDS011;55732;52.248;-0.844;2023-07-13T13:09:13;2.70;;;1.90;;
62925;SDS011;55732;52.248;-0.844;2023-07-13T13:11:40;4.20;;;2.00;;
62925;SDS011;55732;52.248;-0.844;2023-07-13T13:14:06;5.40;;;2.20;;
62925;SDS011;55732;52.248;-0.844;2023-07-13T13:16:37;3.60;;;2.30;;
62925;SDS011;55732;52.248;-0.844;2023-07-13T13:19:13;2.70;;;1.80;;
62925;SDS011;55732;52.248;-0.844;2023-07-13T13:21:42;6.50;;;2.10;;
62925;SDS011;55732;52.248;-0.844;2023-07-13T13:24:12;2.20;;;2.00;;
62925;SDS011;55732;52.248;-0.844;2023-07-13T13:26:40;3.10;;;1.70;;
62925;SDS011;55732;52.248;-0.844;2023-07-13T13:29:16;3.90;;;1.90;;
62925;SDS011;55732;52.248;-0.844;2023-07-13T13:31:46;4.70;;;2.00;;
62925;SDS011;55732;52.248;-0.844;2023-07-13T13:34:13;2.80;;;1.80;;
62925;SDS011;55732;52.248;-0.844;2023-07-13T13:36:41;5.80;;;2.30;;
62925;SDS011;55732;52.248;-0.844;2023-07-13T13:41:52;4.50;;;2.30;;
62925;SDS011;55732;52.248;-0.844;2023-07-13T13:44:19;3.20;;;2.20;;
62925;SDS011;55732;52.248;-0.844;2023-07-13T13:46:46;4.80;;;2.10;;
62925;SDS011;55732;52.248;-0.844;2023-07-13T13:49:23;4.60;;;2.20;;
62925;SDS011;55732;52.248;-0.844;2023-07-13T13:51:51;3.40;;;2.30;;
62925;SDS011;55732;52.248;-0.844;2023-07-13T13:54:18;2.60;;;2.30;;
62925;SDS011;55732;52.248;-0.844;2023-07-13T13:56:45;3.40;;;2.30;;
62925;SDS011;55732;52.248;-0.844;2023-07-13T13:59:13;3.50;;;2.20;;
62925;SDS011;55732;52.248;-0.844;2023-07-13T14:01:39;4.80;;;2.40;;
62925;SDS011;55732;52.248;-0.844;2023-07-13T14:06:34;4.10;;;2.20;;
62925;SDS011;55732;52.248;-0.844;2023-07-13T14:09:00;4.60;;;2.10;;
62925;SDS011;55732;52.248;-0.844;2023-07-13T14:11:27;3.60;;;2.40;;
62925;SDS011;55732;52.248;-0.844;2023-07-13T14:13:54;4.10;;;2.40;;
62925;SDS011;55732;52.248;-0.844;2023-07-13T14:16:22;3.70;;;2.40;;
62925;SDS011;55732;52.248;-0.844;2023-07-13T14:18:52;3.50;;;2.60;;
62925;SDS011;55732;52.248;-0.844;2023-07-13T14:21:19;4.10;;;2.70;;
62925;SDS011;55732;52.248;-0.844;2023-07-13T14:26:20;4.50;;;2.90;;
62925;SDS011;55732;52.248;-0.844;2023-07-13T14:28:48;4.70;;;2.60;;
62925;SDS011;55732;52.248;-0.844;2023-07-13T14:31:16;4.30;;;2.60;;
62925;SDS011;55732;52.248;-0.844;2023-07-13T14:33:43;2.90;;;2.20;;
62925;SDS011;55732;52.248;-0.844;2023-07-13T14:38:52;4.40;;;2.40;;
62925;SDS011;55732;52.248;-0.844;2023-07-13T14:41:18;3.20;;;2.20;;
62925;SDS011;55732;52.248;-0.844;2023-07-13T14:43:44;3.60;;;2.30;;
62925;SDS011;55732;52.248;-0.844;2023-07-13T14:46:24;4.10;;;2.60;;
62925;SDS011;55732;52.248;-0.844;2023-07-13T14:48:56;2.60;;;2.20;;
62925;SDS011;55732;52.248;-0.844;2023-07-13T14:51:26;2.90;;;2.20;;
62925;SDS011;55732;52.248;-0.844;2023-07-13T14:53:51;5.70;;;2.60;;
62925;SDS011;55732;52.248;-0.844;2023-07-13T14:56:17;4.20;;;2.50;;
62925;SDS011;55732;52.248;-0.844;2023-07-13T14:58:42;3.40;;;2.40;;
62925;SDS011;55732;52.248;-0.844;2023-07-13T15:01:14;4.30;;;2.40;;
62925;SDS011;55732;52.248;-0.844;2023-07-13T15:03:43;5.00;;;2.30;;
62925;SDS011;55732;52.248;-0.844;2023-07-13T15:06:11;2.90;;;2.10;;
62925;SDS011;55732;52.248;-0.844;2023-07-13T15:08:37;2.30;;;2.10;;
62925;SDS011;55732;52.248;-0.844;2023-07-13T15:11:02;3.90;;;2.40;;
62925;SDS011;55732;52.248;-0.844;2023-07-13T15:13:30;3.60;;;2.50;;
62925;SDS011;55732;52.248;-0.844;2023-07-13T15:15:55;5.00;;;2.60;;
62925;SDS011;55732;52.248;-0.844;2023-07-13T15:18:22;3.10;;;2.10;;
62925;SDS011;55732;52.248;-0.844;2023-07-13T15:20:50;4.50;;;2.50;;
62925;SDS011;55732;52.248;-0.844;2023-07-13T15:23:17;4.10;;;2.30;;
62925;SDS011;55732;52.248;-0.844;2023-07-13T15:25:43;4.70;;;2.00;;
62925;SDS011;55732;52.248;-0.844;2023-07-13T15:30:40;2.60;;;1.90;;
62925;SDS011;55732;52.248;-0.844;2023-07-13T15:33:15;3.00;;;2.10;;
62925;SDS011;55732;52.248;-0.844;2023-07-13T15:35:44;2.90;;;2.00;;
62925;SDS011;55732;52.248;-0.844;2023-07-13T15:38:16;3.80;;;2.00;;
62925;SDS011;55732;52.248;-0.844;2023-07-13T15:40:43;2.70;;;2.00;;
62925;SDS011;55732;52.248;-0.844;2023-07-13T15:43:12;3.40;;;1.90;;
62925;SDS011;55732;52.248;-0.844;2023-07-13T15:45:39;3.60;;;2.00;;
62925;SDS011;55732;52.248;-0.844;2023-07-13T15:48:14;3.20;;;1.90;;
62925;SDS011;55732;52.248;-0.844;2023-07-13T15:50:48;3.40;;;1.80;;